sensor_id;sensor_type;location;lat;lon;timestamp;P1;durP1;ratioP1;P2;durP2;ratioP2
58208;SDS011;44006;52.028;4.696;2024-01-06T00:01:51;19.40;;;12.55;;
58208;SDS011;44006;52.028;4.696;2024-01-06T00:04:17;19.00;;;12.17;;
58208;SDS011;44006;52.028;4.696;2024-01-06T00:06:42;18.20;;;12.48;;
58208;SDS011;44006;52.028;4.696;2024-01-06T00:09:07;17.02;;;11.50;;
58208;SDS011;44006;52.028;4.696;2024-01-06T00:11:32;18.70;;;11.05;;
58208;SDS011;44006;52.028;4.696;2024-01-06T00:13:57;16.20;;;11.50;;
58208;SDS011;44006;52.028;4.696;2024-01-06T00:16:23;16.27;;;11.87;;
58208;SDS011;44006;52.028;4.696;2024-01-06T00:18:48;19.53;;;11.97;;
58208;SDS011;44006;52.028;4.696;2024-01-06T00:21:13;18.48;;;11.45;;
58208;SDS011;44006;52.028;4.696;2024-01-06T00:23:41;15.00;;;10.60;;
58208;SDS011;44006;52.028;4.696;2024-01-06T00:26:09;18.92;;;10.95;;
58208;SDS011;44006;52.028;4.696;2024-01-06T00:28:34;18.25;;;10.45;;
58208;SDS011;44006;52.028;4.696;2024-01-06T00:31:00;16.02;;;10.60;;
58208;SDS011;44006;52.028;4.696;2024-01-06T00:33:25;19.83;;;10.98;;
58208;SDS011;44006;52.028;4.696;2024-01-06T00:35:50;16.02;;;10.20;;
58208;SDS011;44006;52.028;4.696;2024-01-06T00:38:19;17.00;;;10.87;;
58208;SDS011;44006;52.028;4.696;2024-01-06T00:40:47;14.85;;;10.52;;
58208;SDS011;44006;52.028;4.696;2024-01-06T00:43:12;14.65;;;9.40;;
58208;SDS011;44006;52.028;4.696;2024-01-06T00:45:37;15.77;;;10.38;;
58208;SDS011;44006;52.028;4.696;2024-01-06T00:48:03;15.40;;;9.80;;
58208;SDS011;44006;52.028;4.696;2024-01-06T00:50:28;15.20;;;9.73;;
58208;SDS011;44006;52.028;4.696;2024-01-06T00:52:53;16.02;;;10.32;;
58208;SDS011;44006;52.028;4.696;2024-01-06T00:55:19;17.17;;;10.73;;
58208;SDS011;44006;52.028;4.696;2024-01-06T00:57:44;18.83;;;11.25;;
58208;SDS011;44006;52.028;4.696;2024-01-06T01:00:10;18.05;;;9.95;;
58208;SDS011;44006;52.028;4.696;2024-01-06T01:02:35;14.73;;;8.95;;
58208;SDS011;44006;52.028;4.696;2024-01-06T01:05:01;15.38;;;9.68;;
58208;SDS011;44006;52.028;4.696;2024-01-06T01:07:27;18.08;;;9.52;;
58208;SDS011;44006;52.028;4.696;2024-01-06T01:09:52;17.95;;;9.23;;
58208;SDS011;44006;52.028;4.696;2024-01-06T01:12:17;14.95;;;9.32;;
58208;SDS011;44006;52.028;4.696;2024-01-06T01:14:42;14.13;;;8.50;;
58208;SDS011;44006;52.028;4.696;2024-01-06T01:17:08;17.08;;;9.43;;
58208;SDS011;44006;52.028;4.696;2024-01-06T01:19:33;13.43;;;9.07;;
58208;SDS011;44006;52.028;4.696;2024-01-06T01:21:58;14.13;;;8.70;;
58208;SDS011;44006;52.028;4.696;2024-01-06T01:24:23;17.25;;;9.20;;
58208;SDS011;44006;52.028;4.696;2024-01-06T01:26:49;16.50;;;9.93;;
58208;SDS011;44006;52.028;4.696;2024-01-06T01:29:14;20.02;;;10.00;;
58208;SDS011;44006;52.028;4.696;2024-01-06T01:31:39;20.05;;;9.50;;
58208;SDS011;44006;52.028;4.696;2024-01-06T01:34:04;16.93;;;10.10;;
58208;SDS011;44006;52.028;4.696;2024-01-06T01:36:29;17.80;;;9.27;;
58208;SDS011;44006;52.028;4.696;2024-01-06T01:38:55;12.07;;;7.83;;
58208;SDS011;44006;52.028;4.696;2024-01-06T01:41:20;17.38;;;8.80;;
58208;SDS011;44006;52.028;4.696;2024-01-06T01:43:45;12.37;;;8.13;;
58208;SDS011;44006;52.028;4.696;2024-01-06T01:46:10;17.58;;;9.50;;
58208;SDS011;44006;52.028;4.696;2024-01-06T01:48:36;14.02;;;9.00;;
58208;SDS011;44006;52.028;4.696;2024-01-06T01:51:02;15.90;;;9.75;;
58208;SDS011;44006;52.028;4.696;2024-01-06T01:53:27;17.83;;;10.15;;
58208;SDS011;44006;52.028;4.696;2024-01-06T01:55:53;16.05;;;11.45;;
58208;SDS011;44006;52.028;4.696;2024-01-06T01:58:19;16.17;;;10.80;;
58208;SDS011;44006;52.028;4.696;2024-01-06T02:00:45;18.10;;;10.98;;
58208;SDS011;44006;52.028;4.696;2024-01-06T02:03:10;16.25;;;10.18;;
58208;SDS011;44006;52.028;4.696;2024-01-06T02:05:36;14.82;;;9.80;;
58208;SDS011;44006;52.028;4.696;2024-01-06T02:08:01;11.82;;;8.07;;
58208;SDS011;44006;52.028;4.696;2024-01-06T02:10:26;13.23;;;7.90;;
58208;SDS011;44006;52.028;4.696;2024-01-06T02:12:51;11.75;;;7.97;;
58208;SDS011;44006;52.028;4.696;2024-01-06T02:15:23;11.15;;;7.78;;
58208;SDS011;44006;52.028;4.696;2024-01-06T02:17:48;12.02;;;8.35;;
58208;SDS011;44006;52.028;4.696;2024-01-06T02:20:13;13.32;;;8.30;;
58208;SDS011;44006;52.028;4.696;2024-01-06T02:22:39;13.65;;;9.02;;
58208;SDS011;44006;52.028;4.696;2024-01-06T02:25:05;13.47;;;8.80;;
58208;SDS011;44006;52.028;4.696;2024-01-06T02:27:37;10.32;;;7.00;;
58208;SDS011;44006;52.028;4.696;2024-01-06T02:30:02;10.17;;;7.20;;
58208;SDS011;44006;52.028;4.696;2024-01-06T02:32:27;9.68;;;7.72;;
58208;SDS011;44006;52.028;4.696;2024-01-06T02:34:52;14.60;;;9.23;;
58208;SDS011;44006;52.028;4.696;2024-01-06T02:37:18;12.00;;;8.63;;
58208;SDS011;44006;52.028;4.696;2024-01-06T02:39:44;13.32;;;7.78;;
58208;SDS011;44006;52.028;4.696;2024-01-06T02:42:09;12.95;;;7.50;;
58208;SDS011;44006;52.028;4.696;2024-01-06T02:44:34;15.73;;;8.43;;
58208;SDS011;44006;52.028;4.696;2024-01-06T02:46:59;14.57;;;9.00;;
58208;SDS011;44006;52.028;4.696;2024-01-06T02:49:25;13.47;;;9.43;;
58208;SDS011;44006;52.028;4.696;2024-01-06T02:51:51;12.25;;;8.40;;
58208;SDS011;44006;52.028;4.696;2024-01-06T02:54:16;14.33;;;8.23;;
58208;SDS011;44006;52.028;4.696;2024-01-06T02:56:41;11.05;;;8.25;;
58208;SDS011;44006;52.028;4.696;2024-01-06T02:59:06;11.02;;;7.97;;
58208;SDS011;44006;52.028;4.696;2024-01-06T03:01:32;12.65;;;8.63;;
58208;SDS011;44006;52.028;4.696;2024-01-06T03:03:58;16.02;;;10.15;;
58208;SDS011;44006;52.028;4.696;2024-01-06T03:06:23;15.35;;;10.52;;
58208;SDS011;44006;52.028;4.696;2024-01-06T03:08:48;21.77;;;11.25;;
58208;SDS011;44006;52.028;4.696;2024-01-06T03:11:14;16.92;;;11.63;;
58208;SDS011;44006;52.028;4.696;2024-01-06T03:13:39;15.48;;;10.70;;
58208;SDS011;44006;52.028;4.696;2024-01-06T03:16:05;16.25;;;10.90;;
58208;SDS011;44006;52.028;4.696;2024-01-06T03:18:30;18.55;;;11.32;;
58208;SDS011;44006;52.028;4.696;2024-01-06T03:20:55;17.10;;;11.57;;
58208;SDS011;44006;52.028;4.696;2024-01-06T03:23:21;20.42;;;11.48;;
58208;SDS011;44006;52.028;4.696;2024-01-06T03:25:47;17.85;;;10.73;;
58208;SDS011;44006;52.028;4.696;2024-01-06T03:28:12;16.77;;;11.40;;
58208;SDS011;44006;52.028;4.696;2024-01-06T03:30:38;18.40;;;11.80;;
58208;SDS011;44006;52.028;4.696;2024-01-06T03:33:03;18.83;;;12.23;;
58208;SDS011;44006;52.028;4.696;2024-01-06T03:35:28;19.08;;;12.65;;
58208;SDS011;44006;52.028;4.696;2024-01-06T03:37:55;21.25;;;11.82;;
58208;SDS011;44006;52.028;4.696;2024-01-06T03:40:20;21.65;;;13.35;;
58208;SDS011;44006;52.028;4.696;2024-01-06T03:42:45;22.73;;;13.52;;
58208;SDS011;44006;52.028;4.696;2024-01-06T03:45:11;24.73;;;14.38;;
58208;SDS011;44006;52.028;4.696;2024-01-06T03:47:36;21.40;;;14.18;;
58208;SDS011;44006;52.028;4.696;2024-01-06T03:50:01;20.67;;;14.02;;
58208;SDS011;44006;52.028;4.696;2024-01-06T03:52:27;23.25;;;14.68;;
58208;SDS011;44006;52.028;4.696;2024-01-06T03:54:52;19.92;;;12.63;;
58208;SDS011;44006;52.028;4.696;2024-01-06T03:57:17;21.15;;;12.75;;
58208;SDS011;44006;52.028;4.696;2024-01-06T03:59:42;19.83;;;11.30;;
58208;SDS011;44006;52.028;4.696;2024-01-06T04:02:07;16.35;;;9.93;;
58208;SDS011;44006;52.028;4.696;2024-01-06T04:04:33;13.00;;;8.32;;
58208;SDS011;44006;52.028;4.696;2024-01-06T04:06:58;11.50;;;7.17;;
58208;SDS011;44006;52.028;4.696;2024-01-06T04:09:23;12.05;;;7.22;;
58208;SDS011;44006;52.028;4.696;2024-01-06T04:11:48;10.82;;;7.75;;
58208;SDS011;44006;52.028;4.696;2024-01-06T04:14:13;12.40;;;7.40;;
58208;SDS011;44006;52.028;4.696;2024-01-06T04:16:39;10.00;;;6.53;;
58208;SDS011;44006;52.028;4.696;2024-01-06T04:19:04;10.10;;;6.22;;
58208;SDS011;44006;52.028;4.696;2024-01-06T04:21:32;9.20;;;6.45;;
58208;SDS011;44006;52.028;4.696;2024-01-06T04:23:57;11.80;;;7.13;;
58208;SDS011;44006;52.028;4.696;2024-01-06T04:26:22;11.70;;;7.55;;
58208;SDS011;44006;52.028;4.696;2024-01-06T04:28:48;11.90;;;8.15;;
58208;SDS011;44006;52.028;4.696;2024-01-06T04:31:13;12.87;;;8.23;;
58208;SDS011;44006;52.028;4.696;2024-01-06T04:33:38;15.27;;;8.77;;
58208;SDS011;44006;52.028;4.696;2024-01-06T04:36:05;14.57;;;9.10;;
58208;SDS011;44006;52.028;4.696;2024-01-06T04:38:30;13.98;;;8.60;;
58208;SDS011;44006;52.028;4.696;2024-01-06T04:40:55;15.37;;;9.20;;
58208;SDS011;44006;52.028;4.696;2024-01-06T04:43:21;15.63;;;8.80;;
58208;SDS011;44006;52.028;4.696;2024-01-06T04:45:46;14.77;;;8.87;;
58208;SDS011;44006;52.028;4.696;2024-01-06T04:48:11;15.07;;;9.10;;
58208;SDS011;44006;52.028;4.696;2024-01-06T04:50:36;15.32;;;9.55;;
58208;SDS011;44006;52.028;4.696;2024-01-06T04:53:02;17.48;;;9.18;;
58208;SDS011;44006;52.028;4.696;2024-01-06T04:55:27;17.20;;;9.32;;
58208;SDS011;44006;52.028;4.696;2024-01-06T04:57:53;15.73;;;9.57;;
58208;SDS011;44006;52.028;4.696;2024-01-06T05:00:18;13.50;;;8.00;;
58208;SDS011;44006;52.028;4.696;2024-01-06T05:02:43;13.95;;;8.70;;
58208;SDS011;44006;52.028;4.696;2024-01-06T05:05:09;17.67;;;9.00;;
58208;SDS011;44006;52.028;4.696;2024-01-06T05:07:34;14.93;;;8.53;;
58208;SDS011;44006;52.028;4.696;2024-01-06T05:09:59;14.50;;;9.63;;
58208;SDS011;44006;52.028;4.696;2024-01-06T05:12:24;14.45;;;8.70;;
58208;SDS011;44006;52.028;4.696;2024-01-06T05:14:49;17.05;;;8.98;;
58208;SDS011;44006;52.028;4.696;2024-01-06T05:17:15;13.87;;;8.77;;
58208;SDS011;44006;52.028;4.696;2024-01-06T05:19:40;17.17;;;9.77;;
58208;SDS011;44006;52.028;4.696;2024-01-06T05:22:06;18.25;;;10.48;;
58208;SDS011;44006;52.028;4.696;2024-01-06T05:24:31;16.63;;;10.38;;
58208;SDS011;44006;52.028;4.696;2024-01-06T05:26:57;19.37;;;11.00;;
58208;SDS011;44006;52.028;4.696;2024-01-06T05:29:22;18.53;;;10.40;;
58208;SDS011;44006;52.028;4.696;2024-01-06T05:31:47;17.77;;;10.75;;
58208;SDS011;44006;52.028;4.696;2024-01-06T05:34:14;18.02;;;10.13;;
58208;SDS011;44006;52.028;4.696;2024-01-06T05:36:39;18.83;;;10.82;;
58208;SDS011;44006;52.028;4.696;2024-01-06T05:39:04;21.60;;;11.77;;
58208;SDS011;44006;52.028;4.696;2024-01-06T05:41:29;17.33;;;11.10;;
58208;SDS011;44006;52.028;4.696;2024-01-06T05:43:56;19.85;;;10.57;;
58208;SDS011;44006;52.028;4.696;2024-01-06T05:46:24;18.17;;;9.82;;
58208;SDS011;44006;52.028;4.696;2024-01-06T05:48:49;14.57;;;9.25;;
58208;SDS011;44006;52.028;4.696;2024-01-06T05:51:14;13.38;;;7.95;;
58208;SDS011;44006;52.028;4.696;2024-01-06T05:53:40;14.77;;;7.30;;
58208;SDS011;44006;52.028;4.696;2024-01-06T05:56:08;12.65;;;7.13;;
58208;SDS011;44006;52.028;4.696;2024-01-06T05:58:35;9.10;;;5.78;;
58208;SDS011;44006;52.028;4.696;2024-01-06T06:01:00;10.50;;;6.10;;
58208;SDS011;44006;52.028;4.696;2024-01-06T06:03:25;9.95;;;6.20;;
58208;SDS011;44006;52.028;4.696;2024-01-06T06:05:51;10.15;;;6.30;;
58208;SDS011;44006;52.028;4.696;2024-01-06T06:08:16;8.57;;;6.05;;
58208;SDS011;44006;52.028;4.696;2024-01-06T06:10:42;10.25;;;5.82;;
58208;SDS011;44006;52.028;4.696;2024-01-06T06:13:24;9.90;;;6.68;;
58208;SDS011;44006;52.028;4.696;2024-01-06T06:15:50;13.05;;;7.57;;
58208;SDS011;44006;52.028;4.696;2024-01-06T06:18:18;12.80;;;8.23;;
58208;SDS011;44006;52.028;4.696;2024-01-06T06:20:44;12.65;;;6.95;;
58208;SDS011;44006;52.028;4.696;2024-01-06T06:23:09;12.30;;;7.72;;
58208;SDS011;44006;52.028;4.696;2024-01-06T06:25:36;13.90;;;7.95;;
58208;SDS011;44006;52.028;4.696;2024-01-06T06:28:01;10.43;;;7.07;;
58208;SDS011;44006;52.028;4.696;2024-01-06T06:30:30;15.15;;;7.57;;
58208;SDS011;44006;52.028;4.696;2024-01-06T06:32:55;10.90;;;7.30;;
58208;SDS011;44006;52.028;4.696;2024-01-06T06:35:22;15.30;;;7.30;;
58208;SDS011;44006;52.028;4.696;2024-01-06T06:37:49;16.95;;;7.43;;
58208;SDS011;44006;52.028;4.696;2024-01-06T06:40:14;16.17;;;8.60;;
58208;SDS011;44006;52.028;4.696;2024-01-06T06:42:39;14.50;;;8.75;;
58208;SDS011;44006;52.028;4.696;2024-01-06T06:45:05;13.60;;;8.97;;
58208;SDS011;44006;52.028;4.696;2024-01-06T06:47:30;14.23;;;9.18;;
58208;SDS011;44006;52.028;4.696;2024-01-06T06:49:55;15.37;;;9.00;;
58208;SDS011;44006;52.028;4.696;2024-01-06T06:52:21;15.40;;;9.40;;
58208;SDS011;44006;52.028;4.696;2024-01-06T06:54:46;14.57;;;9.98;;
58208;SDS011;44006;52.028;4.696;2024-01-06T06:57:17;14.70;;;10.05;;
58208;SDS011;44006;52.028;4.696;2024-01-06T06:59:42;14.80;;;9.48;;
58208;SDS011;44006;52.028;4.696;2024-01-06T07:02:07;14.80;;;10.25;;
58208;SDS011;44006;52.028;4.696;2024-01-06T07:04:32;16.80;;;10.65;;
58208;SDS011;44006;52.028;4.696;2024-01-06T07:06:58;17.67;;;11.50;;
58208;SDS011;44006;52.028;4.696;2024-01-06T07:09:23;16.63;;;10.37;;
58208;SDS011;44006;52.028;4.696;2024-01-06T07:11:49;18.20;;;11.45;;
58208;SDS011;44006;52.028;4.696;2024-01-06T07:14:14;17.13;;;10.73;;
58208;SDS011;44006;52.028;4.696;2024-01-06T07:16:39;21.97;;;11.40;;
58208;SDS011;44006;52.028;4.696;2024-01-06T07:19:04;19.03;;;11.17;;
58208;SDS011;44006;52.028;4.696;2024-01-06T07:21:32;18.02;;;11.25;;
58208;SDS011;44006;52.028;4.696;2024-01-06T07:23:58;16.80;;;11.65;;
58208;SDS011;44006;52.028;4.696;2024-01-06T07:26:23;18.30;;;11.10;;
58208;SDS011;44006;52.028;4.696;2024-01-06T07:28:48;16.00;;;10.50;;
58208;SDS011;44006;52.028;4.696;2024-01-06T07:31:14;20.05;;;11.88;;
58208;SDS011;44006;52.028;4.696;2024-01-06T07:33:39;18.40;;;11.77;;
58208;SDS011;44006;52.028;4.696;2024-01-06T07:36:05;18.88;;;10.60;;
58208;SDS011;44006;52.028;4.696;2024-01-06T07:38:30;17.52;;;11.00;;
58208;SDS011;44006;52.028;4.696;2024-01-06T07:40:56;16.60;;;10.45;;
58208;SDS011;44006;52.028;4.696;2024-01-06T07:43:21;15.13;;;9.68;;
58208;SDS011;44006;52.028;4.696;2024-01-06T07:45:46;17.70;;;9.98;;
58208;SDS011;44006;52.028;4.696;2024-01-06T07:48:11;17.23;;;9.57;;
58208;SDS011;44006;52.028;4.696;2024-01-06T07:50:37;16.43;;;10.47;;
58208;SDS011;44006;52.028;4.696;2024-01-06T07:53:02;17.25;;;9.88;;
58208;SDS011;44006;52.028;4.696;2024-01-06T07:55:27;16.20;;;9.70;;
58208;SDS011;44006;52.028;4.696;2024-01-06T07:57:53;13.52;;;8.65;;
58208;SDS011;44006;52.028;4.696;2024-01-06T08:00:19;13.73;;;8.82;;
58208;SDS011;44006;52.028;4.696;2024-01-06T08:02:44;15.23;;;9.32;;
58208;SDS011;44006;52.028;4.696;2024-01-06T08:05:09;13.38;;;9.18;;
58208;SDS011;44006;52.028;4.696;2024-01-06T08:07:35;17.70;;;9.80;;
58208;SDS011;44006;52.028;4.696;2024-01-06T08:10:00;16.52;;;9.55;;
58208;SDS011;44006;52.028;4.696;2024-01-06T08:12:25;14.75;;;9.70;;
58208;SDS011;44006;52.028;4.696;2024-01-06T08:14:51;18.05;;;9.40;;
58208;SDS011;44006;52.028;4.696;2024-01-06T08:17:16;15.38;;;10.27;;
58208;SDS011;44006;52.028;4.696;2024-01-06T08:19:43;14.55;;;9.88;;
58208;SDS011;44006;52.028;4.696;2024-01-06T08:22:08;15.60;;;10.45;;
58208;SDS011;44006;52.028;4.696;2024-01-06T08:24:35;13.25;;;9.73;;
58208;SDS011;44006;52.028;4.696;2024-01-06T08:27:00;14.70;;;9.65;;
58208;SDS011;44006;52.028;4.696;2024-01-06T08:29:33;17.65;;;10.65;;
58208;SDS011;44006;52.028;4.696;2024-01-06T08:32:08;16.42;;;10.02;;
58208;SDS011;44006;52.028;4.696;2024-01-06T08:34:35;15.73;;;10.77;;
58208;SDS011;44006;52.028;4.696;2024-01-06T08:37:00;17.98;;;11.00;;
58208;SDS011;44006;52.028;4.696;2024-01-06T08:39:26;14.77;;;10.73;;
58208;SDS011;44006;52.028;4.696;2024-01-06T08:41:51;14.82;;;10.55;;
58208;SDS011;44006;52.028;4.696;2024-01-06T08:44:17;16.98;;;11.95;;
58208;SDS011;44006;52.028;4.696;2024-01-06T08:46:42;19.90;;;11.30;;
58208;SDS011;44006;52.028;4.696;2024-01-06T08:49:08;15.80;;;10.93;;
58208;SDS011;44006;52.028;4.696;2024-01-06T08:51:33;18.17;;;10.35;;
58208;SDS011;44006;52.028;4.696;2024-01-06T08:53:59;16.02;;;11.32;;
58208;SDS011;44006;52.028;4.696;2024-01-06T08:56:25;13.98;;;10.18;;
58208;SDS011;44006;52.028;4.696;2024-01-06T08:58:50;19.45;;;11.50;;
58208;SDS011;44006;52.028;4.696;2024-01-06T09:01:22;16.08;;;10.65;;
58208;SDS011;44006;52.028;4.696;2024-01-06T09:03:47;15.75;;;10.90;;
58208;SDS011;44006;52.028;4.696;2024-01-06T09:06:13;18.20;;;10.88;;
58208;SDS011;44006;52.028;4.696;2024-01-06T09:08:39;21.80;;;10.20;;
58208;SDS011;44006;52.028;4.696;2024-01-06T09:11:05;14.48;;;10.00;;
58208;SDS011;44006;52.028;4.696;2024-01-06T09:13:30;18.52;;;10.35;;
58208;SDS011;44006;52.028;4.696;2024-01-06T09:15:58;13.88;;;9.90;;
58208;SDS011;44006;52.028;4.696;2024-01-06T09:21:15;14.98;;;9.75;;
58208;SDS011;44006;52.028;4.696;2024-01-06T09:23:42;16.80;;;9.43;;
58208;SDS011;44006;52.028;4.696;2024-01-06T09:26:08;16.67;;;9.85;;
58208;SDS011;44006;52.028;4.696;2024-01-06T09:28:33;13.90;;;9.93;;
58208;SDS011;44006;52.028;4.696;2024-01-06T09:30:58;18.38;;;9.63;;
58208;SDS011;44006;52.028;4.696;2024-01-06T09:33:23;16.55;;;10.23;;
58208;SDS011;44006;52.028;4.696;2024-01-06T09:35:49;17.17;;;10.18;;
58208;SDS011;44006;52.028;4.696;2024-01-06T09:38:15;14.18;;;9.85;;
58208;SDS011;44006;52.028;4.696;2024-01-06T09:40:42;18.33;;;10.02;;
58208;SDS011;44006;52.028;4.696;2024-01-06T09:43:09;15.20;;;10.57;;
58208;SDS011;44006;52.028;4.696;2024-01-06T09:45:34;15.70;;;10.13;;
58208;SDS011;44006;52.028;4.696;2024-01-06T09:47:59;16.67;;;9.90;;
58208;SDS011;44006;52.028;4.696;2024-01-06T09:50:29;15.75;;;10.25;;
58208;SDS011;44006;52.028;4.696;2024-01-06T09:52:55;15.35;;;9.75;;
58208;SDS011;44006;52.028;4.696;2024-01-06T09:55:29;16.33;;;9.68;;
58208;SDS011;44006;52.028;4.696;2024-01-06T09:57:54;14.32;;;9.63;;
58208;SDS011;44006;52.028;4.696;2024-01-06T10:00:20;17.05;;;10.52;;
58208;SDS011;44006;52.028;4.696;2024-01-06T10:02:46;16.55;;;9.80;;
58208;SDS011;44006;52.028;4.696;2024-01-06T10:05:12;14.45;;;9.73;;
58208;SDS011;44006;52.028;4.696;2024-01-06T10:07:41;15.07;;;9.52;;
58208;SDS011;44006;52.028;4.696;2024-01-06T10:10:07;14.75;;;9.57;;
58208;SDS011;44006;52.028;4.696;2024-01-06T10:12:32;14.95;;;9.80;;
58208;SDS011;44006;52.028;4.696;2024-01-06T10:14:57;17.73;;;9.60;;
58208;SDS011;44006;52.028;4.696;2024-01-06T10:17:23;16.37;;;10.03;;
58208;SDS011;44006;52.028;4.696;2024-01-06T10:19:48;15.07;;;9.50;;
58208;SDS011;44006;52.028;4.696;2024-01-06T10:22:14;12.73;;;9.10;;
58208;SDS011;44006;52.028;4.696;2024-01-06T10:24:39;15.70;;;9.95;;
58208;SDS011;44006;52.028;4.696;2024-01-06T10:27:05;16.20;;;9.68;;
58208;SDS011;44006;52.028;4.696;2024-01-06T10:29:30;14.20;;;8.85;;
58208;SDS011;44006;52.028;4.696;2024-01-06T10:31:55;12.48;;;9.05;;
58208;SDS011;44006;52.028;4.696;2024-01-06T10:34:21;14.32;;;9.13;;
58208;SDS011;44006;52.028;4.696;2024-01-06T10:36:47;16.25;;;9.98;;
58208;SDS011;44006;52.028;4.696;2024-01-06T10:39:13;16.10;;;9.52;;
58208;SDS011;44006;52.028;4.696;2024-01-06T10:41:40;14.57;;;9.73;;
58208;SDS011;44006;52.028;4.696;2024-01-06T10:44:07;14.68;;;9.25;;
58208;SDS011;44006;52.028;4.696;2024-01-06T10:46:33;12.80;;;8.35;;
58208;SDS011;44006;52.028;4.696;2024-01-06T10:48:58;14.18;;;9.15;;
58208;SDS011;44006;52.028;4.696;2024-01-06T10:51:26;14.45;;;8.10;;
58208;SDS011;44006;52.028;4.696;2024-01-06T10:53:52;13.90;;;8.20;;
58208;SDS011;44006;52.028;4.696;2024-01-06T10:56:19;13.98;;;8.05;;
58208;SDS011;44006;52.028;4.696;2024-01-06T10:58:47;12.52;;;8.05;;
58208;SDS011;44006;52.028;4.696;2024-01-06T11:01:15;14.43;;;8.00;;
58208;SDS011;44006;52.028;4.696;2024-01-06T11:03:41;11.52;;;8.25;;
58208;SDS011;44006;52.028;4.696;2024-01-06T11:06:08;15.90;;;8.25;;
58208;SDS011;44006;52.028;4.696;2024-01-06T11:11:22;14.38;;;8.18;;
58208;SDS011;44006;52.028;4.696;2024-01-06T11:13:48;13.95;;;8.02;;
58208;SDS011;44006;52.028;4.696;2024-01-06T11:16:33;13.20;;;8.15;;
58208;SDS011;44006;52.028;4.696;2024-01-06T11:18:58;13.15;;;8.18;;
58208;SDS011;44006;52.028;4.696;2024-01-06T11:21:23;14.88;;;8.75;;
58208;SDS011;44006;52.028;4.696;2024-01-06T11:26:32;12.77;;;7.97;;
58208;SDS011;44006;52.028;4.696;2024-01-06T11:28:58;12.95;;;7.43;;
58208;SDS011;44006;52.028;4.696;2024-01-06T11:31:34;14.75;;;8.57;;
58208;SDS011;44006;52.028;4.696;2024-01-06T11:34:12;14.07;;;8.35;;
58208;SDS011;44006;52.028;4.696;2024-01-06T11:36:38;15.48;;;7.70;;
58208;SDS011;44006;52.028;4.696;2024-01-06T11:39:05;11.55;;;7.53;;
58208;SDS011;44006;52.028;4.696;2024-01-06T11:41:48;10.52;;;7.38;;
58208;SDS011;44006;52.028;4.696;2024-01-06T11:44:17;10.90;;;6.68;;
58208;SDS011;44006;52.028;4.696;2024-01-06T11:46:43;10.30;;;6.72;;
58208;SDS011;44006;52.028;4.696;2024-01-06T11:49:10;13.77;;;7.22;;
58208;SDS011;44006;52.028;4.696;2024-01-06T11:51:35;11.98;;;6.70;;
58208;SDS011;44006;52.028;4.696;2024-01-06T11:54:01;11.45;;;7.00;;
58208;SDS011;44006;52.028;4.696;2024-01-06T11:56:26;12.98;;;6.78;;
58208;SDS011;44006;52.028;4.696;2024-01-06T11:58:52;12.43;;;7.00;;
58208;SDS011;44006;52.028;4.696;2024-01-06T12:01:17;11.27;;;7.20;;
58208;SDS011;44006;52.028;4.696;2024-01-06T12:03:43;13.45;;;7.90;;
58208;SDS011;44006;52.028;4.696;2024-01-06T12:06:08;11.48;;;7.90;;
58208;SDS011;44006;52.028;4.696;2024-01-06T12:08:33;12.13;;;7.90;;
58208;SDS011;44006;52.028;4.696;2024-01-06T12:11:02;11.23;;;7.55;;
58208;SDS011;44006;52.028;4.696;2024-01-06T12:13:27;15.02;;;8.05;;
58208;SDS011;44006;52.028;4.696;2024-01-06T12:15:55;19.02;;;8.38;;
58208;SDS011;44006;52.028;4.696;2024-01-06T12:18:22;12.10;;;6.85;;
58208;SDS011;44006;52.028;4.696;2024-01-06T12:20:49;10.18;;;6.10;;
58208;SDS011;44006;52.028;4.696;2024-01-06T12:23:23;11.23;;;6.00;;
58208;SDS011;44006;52.028;4.696;2024-01-06T12:25:49;8.88;;;5.20;;
58208;SDS011;44006;52.028;4.696;2024-01-06T12:28:15;11.10;;;5.20;;
58208;SDS011;44006;52.028;4.696;2024-01-06T12:30:40;8.02;;;5.53;;
58208;SDS011;44006;52.028;4.696;2024-01-06T12:33:05;11.90;;;5.63;;
58208;SDS011;44006;52.028;4.696;2024-01-06T12:35:30;8.65;;;5.70;;
58208;SDS011;44006;52.028;4.696;2024-01-06T12:37:56;9.98;;;6.00;;
58208;SDS011;44006;52.028;4.696;2024-01-06T12:40:21;14.00;;;6.15;;
58208;SDS011;44006;52.028;4.696;2024-01-06T12:42:47;9.02;;;5.75;;
58208;SDS011;44006;52.028;4.696;2024-01-06T12:45:12;9.18;;;5.28;;
58208;SDS011;44006;52.028;4.696;2024-01-06T12:47:39;10.77;;;5.33;;
58208;SDS011;44006;52.028;4.696;2024-01-06T12:50:04;10.50;;;5.35;;
58208;SDS011;44006;52.028;4.696;2024-01-06T12:52:30;9.43;;;4.95;;
58208;SDS011;44006;52.028;4.696;2024-01-06T12:54:55;10.52;;;5.22;;
58208;SDS011;44006;52.028;4.696;2024-01-06T12:57:20;6.85;;;4.60;;
58208;SDS011;44006;52.028;4.696;2024-01-06T12:59:45;10.63;;;4.40;;
58208;SDS011;44006;52.028;4.696;2024-01-06T13:02:11;11.23;;;4.85;;
58208;SDS011;44006;52.028;4.696;2024-01-06T13:04:36;8.63;;;5.30;;
58208;SDS011;44006;52.028;4.696;2024-01-06T13:07:02;9.25;;;5.50;;
58208;SDS011;44006;52.028;4.696;2024-01-06T13:09:28;8.65;;;4.70;;
58208;SDS011;44006;52.028;4.696;2024-01-06T13:11:53;7.63;;;4.25;;
58208;SDS011;44006;52.028;4.696;2024-01-06T13:14:21;6.97;;;4.38;;
58208;SDS011;44006;52.028;4.696;2024-01-06T13:16:48;7.10;;;4.45;;
58208;SDS011;44006;52.028;4.696;2024-01-06T13:19:13;6.80;;;4.68;;
58208;SDS011;44006;52.028;4.696;2024-01-06T13:21:38;9.52;;;5.18;;
58208;SDS011;44006;52.028;4.696;2024-01-06T13:24:05;8.55;;;5.00;;
58208;SDS011;44006;52.028;4.696;2024-01-06T13:26:30;8.57;;;5.20;;
58208;SDS011;44006;52.028;4.696;2024-01-06T13:28:56;9.73;;;4.32;;
58208;SDS011;44006;52.028;4.696;2024-01-06T13:31:21;7.63;;;4.65;;
58208;SDS011;44006;52.028;4.696;2024-01-06T13:33:47;8.90;;;4.30;;
58208;SDS011;44006;52.028;4.696;2024-01-06T13:36:12;6.25;;;4.38;;
58208;SDS011;44006;52.028;4.696;2024-01-06T13:38:37;8.65;;;4.15;;
58208;SDS011;44006;52.028;4.696;2024-01-06T13:41:03;6.68;;;3.90;;
58208;SDS011;44006;52.028;4.696;2024-01-06T13:43:28;9.02;;;4.15;;
58208;SDS011;44006;52.028;4.696;2024-01-06T13:45:53;6.22;;;3.83;;
58208;SDS011;44006;52.028;4.696;2024-01-06T13:48:20;6.40;;;4.60;;
58208;SDS011;44006;52.028;4.696;2024-01-06T13:50:45;6.43;;;4.43;;
58208;SDS011;44006;52.028;4.696;2024-01-06T13:53:12;8.75;;;5.07;;
58208;SDS011;44006;52.028;4.696;2024-01-06T13:55:37;9.73;;;4.60;;
58208;SDS011;44006;52.028;4.696;2024-01-06T13:58:03;9.35;;;4.70;;
58208;SDS011;44006;52.028;4.696;2024-01-06T14:00:29;5.78;;;4.15;;
58208;SDS011;44006;52.028;4.696;2024-01-06T14:02:54;9.48;;;4.38;;
58208;SDS011;44006;52.028;4.696;2024-01-06T14:05:21;8.30;;;4.60;;
58208;SDS011;44006;52.028;4.696;2024-01-06T14:07:46;7.63;;;4.70;;
58208;SDS011;44006;52.028;4.696;2024-01-06T14:10:14;9.48;;;5.30;;
58208;SDS011;44006;52.028;4.696;2024-01-06T14:12:40;9.05;;;4.97;;
58208;SDS011;44006;52.028;4.696;2024-01-06T14:15:07;8.13;;;4.80;;
58208;SDS011;44006;52.028;4.696;2024-01-06T14:17:33;8.68;;;4.90;;
58208;SDS011;44006;52.028;4.696;2024-01-06T14:19:58;7.80;;;5.10;;
58208;SDS011;44006;52.028;4.696;2024-01-06T14:22:24;9.88;;;5.60;;
58208;SDS011;44006;52.028;4.696;2024-01-06T14:24:49;9.88;;;5.22;;
58208;SDS011;44006;52.028;4.696;2024-01-06T14:27:15;9.80;;;5.10;;
58208;SDS011;44006;52.028;4.696;2024-01-06T14:29:40;8.68;;;4.97;;
58208;SDS011;44006;52.028;4.696;2024-01-06T14:32:09;9.60;;;5.53;;
58208;SDS011;44006;52.028;4.696;2024-01-06T14:34:34;8.05;;;5.43;;